• Join FlightAware (Why Join?)
  • Login
  • US Flag 
07:25AM EDT


 

Airport Tracker/Info


-or-


 

Live Flight TrackerFlight Track Log ✈ UAL1259 ✈ 10-Jun-2013 ✈ KDEN - KSFO

Flight Track Log - Related Links

Times and Time Zones

All times are in EDT time to prevent confusion due to time zone crossing. See the UAL1259 flight status page for this flight to view local times or setup timezone preferences in your user account.

Time Position Orientation Groundspeed Altitude Reporting Facility
EDT Latitude Longitude Course Direction KTS MPH feet Rate Location/Type
05:37PM 39.8500 -104.7500 298° West 231 266 6,700  Level Denver TRACON
05:38PM 39.8833 -104.8333 298° West 249 287 7,900 1,380 Climbing Denver TRACON
05:39PM 39.8981 -104.8978 287° West 268 308 9,200 1,560 Climbing Denver Center
05:40PM 39.9100 -105.0044 278° West 299 344 11,100 1,920 Climbing Denver Center
05:41PM 39.9239 -105.1525 277° West 336 387 13,600 2,280 Climbing Denver Center
05:42PM 39.9356 -105.2767 277° West 344 396 16,300 2,280 Climbing Denver Center
05:43PM 39.9500 -105.4350 277° West 361 415 18,900 2,520 Climbing Denver Center
05:44PM 39.9658 -105.5786 278° West 373 429 21,600 2,340 Climbing Denver Center
05:45PM 39.9764 -105.7133 276° West 377 434 23,800 1,860 Climbing Denver Center
05:46PM 39.9708 -105.8542 267° West 374 430 25,500 1,140 Climbing Denver Center
05:47PM 39.9808 -105.9994 275° West 399 459 26,200 480 Climbing Denver Center
05:48PM 39.9867 -106.1269 273° West 429 494 26,600 840 Climbing Denver Center
05:50PM 39.9975 -106.3239 274° West 452 520 28,200 1,500 Climbing Denver Center
05:51PM 39.9978 -106.5125 270° West 450 518 30,000 1,680 Climbing Denver Center
05:52PM 39.9778 -106.7122 263° West 449 517 31,800 1,620 Climbing Denver Center
05:53PM 39.9644 -106.8650 264° West 446 513 33,400 1,020 Climbing Denver Center
05:54PM 39.9492 -107.0253 263° West 440 506 34,000 240 Climbing Denver Center
05:55PM 39.9356 -107.1842 264° West 442 509 34,000  Level Denver Center
05:56PM 39.9203 -107.3442 263° West 438 504 34,000  Level Denver Center
05:57PM 39.9017 -107.5194 262° West 438 504 34,000  Level Denver Center
05:58PM 39.8869 -107.6686 263° West 435 501 34,000  Level Denver Center
05:59PM 39.8694 -107.8433 263° West 438 504 34,000  Level Denver Center
06:00PM 39.8503 -108.0419 263° West 433 498 34,000  Level Denver Center
06:01PM 39.8353 -108.1886 262° West 423 487 34,000  Level Denver Center
06:02PM 39.8181 -108.3364 261° West 432 497 34,000  Level Denver Center
06:03PM 39.8014 -108.5061 263° West 421 484 34,000  Level Denver Center
06:04PM 39.7864 -108.6528 262° West 429 494 34,000 240 Level Denver Center
06:05PM 39.7678 -108.8253 262° West 442 509 34,500 840 Climbing Denver Center
06:06PM 39.7483 -108.9972 262° West 437 503 36,000 660 Climbing Denver Center
06:07PM 39.7283 -109.1664 261° West 428 493 36,000  Level Denver Center
06:08PM 39.7172 -109.2622 261° West 425 489 36,000  Level Salt Lake Center
06:09PM 39.6983 -109.4317 262° West 425 489 36,000  Level Salt Lake Center
06:10PM 39.6931 -109.4803 262° West 425 489 36,000  Level Denver Center
06:11PM 39.6725 -109.6483 261° West 423 487 36,000  Level Denver Center
06:11PM 39.6617 -109.7467 262° West 427 491 36,000  Level Salt Lake Center
06:12PM 39.6444 -109.8931 261° West 429 494 36,000  Level Salt Lake Center
06:13PM 39.6267 -110.0400 261° West 430 495 36,000  Level Salt Lake Center
06:14PM 39.6058 -110.2125 261° West 432 497 36,000  Level Salt Lake Center
06:15PM 39.5889 -110.3611 262° West 434 499 36,000  Level Salt Lake Center
06:16PM 39.5675 -110.5303 261° West 428 493 36,000  Level Salt Lake Center
06:17PM 39.5497 -110.6733 261° West 422 486 36,000  Level Salt Lake Center
06:18PM 39.5281 -110.8419 261° West 424 488 36,000  Level Salt Lake Center
06:19PM 39.5108 -110.9864 261° West 424 488 36,000  Level Salt Lake Center
06:20PM 39.4906 -111.1347 260° West 434 499 36,000  Level Salt Lake Center
06:21PM 39.4700 -111.2936 261° West 436 502 36,000  Level Salt Lake Center
06:22PM 39.4506 -111.4458 261° West 430 495 36,000  Level Salt Lake Center
06:24PM 39.4294 -111.5972 260° West 429 494 36,000  Level Salt Lake Center
06:25PM 39.4031 -111.7800 259° West 432 497 36,000  Level Salt Lake Center
06:26PM 39.3822 -111.9322 260° West 432 497 36,000  Level Salt Lake Center
06:27PM 39.3619 -112.0850 260° West 432 497 36,000  Level Salt Lake Center
06:28PM 39.3400 -112.2386 260° West 436 502 36,000  Level Salt Lake Center
06:29PM 39.3203 -112.3942 261° West 439 505 36,000  Level Salt Lake Center
06:30PM 39.2975 -112.5481 259° West 439 505 36,000  Level Salt Lake Center
06:31PM 39.2597 -112.7022 252° West 433 498 36,000  Level Salt Lake Center
06:32PM 39.2256 -112.8472 253° West 428 493 36,000  Level Salt Lake Center
06:33PM 39.1922 -112.9975 254° West 436 502 36,000  Level Salt Lake Center
06:34PM 39.1581 -113.1425 253° West 429 494 36,000  Level Salt Lake Center
06:35PM 39.1167 -113.3219 253° West 434 499 36,000  Level Salt Lake Center
06:36PM 39.0811 -113.4719 253° West 438 504 36,000  Level Salt Lake Center
06:37PM 39.0469 -113.6206 254° West 436 502 36,000  Level Salt Lake Center
06:38PM 39.0117 -113.7697 253° West 438 504 36,000  Level Salt Lake Center
06:39PM 38.9769 -113.9150 253° West 430 495 36,000  Level Salt Lake Center
06:40PM 38.9419 -114.0617 253° West 433 498 36,000  Level Salt Lake Center
06:41PM 38.9064 -114.2119 253° West 439 505 36,000  Level Salt Lake Center
06:42PM 38.8708 -114.3600 253° West 436 502 36,000  Level Salt Lake Center
06:43PM 38.8264 -114.5403 252° West 443 510 36,000  Level Salt Lake Center
06:44PM 38.7906 -114.6867 253° West 436 502 36,000  Level Salt Lake Center
06:45PM 38.7542 -114.8358 253° West 437 503 36,000  Level Salt Lake Center
06:46PM 38.7164 -114.9825 252° West 436 502 36,000  Level Salt Lake Center
06:47PM 38.6778 -115.1325 252° West 442 509 36,000  Level Salt Lake Center
06:48PM 38.6403 -115.2825 252° West 443 510 36,000  Level Salt Lake Center
06:49PM 38.5992 -115.4472 252° West 443 510 36,000  Level Salt Lake Center
06:50PM 38.5617 -115.5967 252° West 442 509 36,000  Level Salt Lake Center
06:51PM 38.5233 -115.7458 252° West 442 509 36,000  Level Salt Lake Center
06:52PM 38.4850 -115.8947 252° West 442 509 36,000  Level Salt Lake Center
06:53PM 38.4447 -116.0447 251° West 447 514 36,000  Level Salt Lake Center
06:54PM 38.4064 -116.1933 252° West 443 510 36,000  Level Salt Lake Center
06:55PM 38.3678 -116.3425 252° West 444 511 36,000  Level Salt Lake Center
06:56PM 38.3444 -116.4317 252° West 444 511 36,000  Level Oakland Center
06:57PM 38.2975 -116.6092 251° West 442 509 36,000  Level Oakland Center
06:57PM 38.2819 -116.6692 252° West 443 510 36,000  Level Salt Lake Center
06:58PM 38.2414 -116.8183 251° West 445 512 36,000  Level Salt Lake Center
06:59PM 38.2178 -116.9075 251° West 446 513 36,000  Level Oakland Center
07:00PM 38.1778 -117.0564 251° West 447 514 36,000  Level Oakland Center
07:01PM 38.1386 -117.1956 250° West 453 521 36,000  Level Oakland Center
07:02PM 38.0947 -117.3758 253° West 459 528 36,000  Level Oakland Center
07:03PM 38.0603 -117.5269 254° West 449 517 36,000  Level Oakland Center
07:04PM 38.0242 -117.6806 253° West 452 520 36,000  Level Oakland Center
07:05PM 37.9958 -117.8344 257° West 451 519 36,000  Level Oakland Center
07:06PM 37.9797 -117.9947 263° West 458 527 36,000  Level Oakland Center
07:07PM 37.9633 -118.1506 262° West 449 517 36,000  Level Oakland Center
07:08PM 37.9453 -118.3083 262° West 450 518 36,000  Level Oakland Center
07:09PM 37.9281 -118.4656 262° West 452 520 36,000  Level Oakland Center
07:10PM 37.9108 -118.6214 262° West 448 516 36,000  Level Oakland Center
07:11PM 37.8922 -118.7767 261° West 447 514 36,000  Level Oakland Center
07:12PM 37.8769 -118.9333 263° West 448 516 36,000  Level Oakland Center
07:13PM 37.8561 -119.1078 261° West 452 520 36,000  Level Oakland Center
07:14PM 37.8375 -119.2664 262° West 455 524 36,000  Level Oakland Center
07:15PM 37.8200 -119.4233 262° West 453 521 36,000  Level Oakland Center
07:16PM 37.8006 -119.5800 261° West 451 519 36,000 -180 Level Oakland Center
07:17PM 37.7814 -119.7400 261° West 459 528 35,700 -660 Descending Oakland Center
07:18PM 37.7625 -119.8947 261° West 449 517 34,700 -1,020 Descending Oakland Center
07:19PM 37.7447 -120.0478 262° West 445 512 33,700 -1,380 Descending Oakland Center
07:20PM 37.7244 -120.2011 261° West 441 507 32,000 -1,740 Descending Oakland Center
07:21PM 37.7011 -120.3897 261° West 448 516 30,200 -2,820 Descending Oakland Center
07:22PM 37.6808 -120.5486 261° West 454 522 26,300 -2,100 Descending Oakland Center
07:23PM 37.6622 -120.6928 261° West 422 486 26,000 -1,140 Descending Oakland Center
07:24PM 37.6447 -120.8217 260° West 376 433 24,100 -2,640 Descending Oakland Center
07:25PM 37.6275 -120.9553 261° West 383 441 20,600 -3,480 Descending Oakland Center
07:26PM 37.6167 -121.0000 253° West 398 458 19,500 -2,580 Descending Northern Cal TRACON
07:27PM 37.6000 -121.1333 261° West 372 428 17,300 -2,100 Descending Northern Cal TRACON
07:28PM 37.6000 -121.2500 270° West 348 400 15,400 -1,800 Descending Northern Cal TRACON
07:29PM 37.5833 -121.3667 260° West 338 389 13,700 -1,620 Descending Northern Cal TRACON
07:30PM 37.5500 -121.4833 250° West 330 380 12,200 -1,320 Descending Northern Cal TRACON
07:31PM 37.5333 -121.6000 260° West 313 360 11,100 -900 Descending Northern Cal TRACON
07:32PM 37.5167 -121.6833 256° West 291 335 10,500 -1,200 Descending Northern Cal TRACON
07:33PM 37.5000 -121.7833 258° West 288 331 8,900 -1,260 Descending Northern Cal TRACON
07:34PM 37.4833 -121.8667 256° West 278 320 8,000 -1,200 Descending Northern Cal TRACON
07:35PM 37.5000 -121.9667 282° West 261 300 6,600 -1,140 Descending Northern Cal TRACON
07:36PM 37.5167 -122.0333 288° West 224 258 5,800 -1,200 Descending Northern Cal TRACON
07:37PM 37.5333 -122.1167 284° West 219 252 4,300 -1,500 Descending Northern Cal TRACON
07:38PM 37.5667 -122.1833 302° West 227 261 2,800 -1,380 Descending Northern Cal TRACON
07:39PM 37.5833 -122.2500 288° West 185 213 1,600 -1,200 Descending Northern Cal TRACON